sensor_id;sensor_type;location;lat;lon;timestamp;temperature;humidity
69731;SHT31;56996;48.138;11.538;2022-08-01T00:00:11;23.12;50.34
69731;SHT31;56996;48.138;11.538;2022-08-01T00:02:39;23.12;50.25
69731;SHT31;56996;48.138;11.538;2022-08-01T00:05:07;23.09;50.21
69731;SHT31;56996;48.138;11.538;2022-08-01T00:07:35;23.07;50.16
69731;SHT31;56996;48.138;11.538;2022-08-01T00:10:03;23.06;50.23
69731;SHT31;56996;48.138;11.538;2022-08-01T00:12:33;23.04;50.23
69731;SHT31;56996;48.138;11.538;2022-08-01T00:15:00;23.03;50.20
69731;SHT31;56996;48.138;11.538;2022-08-01T00:17:27;23.03;50.20
69731;SHT31;56996;48.138;11.538;2022-08-01T00:19:54;23.01;50.13
69731;SHT31;56996;48.138;11.538;2022-08-01T00:22:20;22.99;50.18
69731;SHT31;56996;48.138;11.538;2022-08-01T00:24:47;22.97;50.00
69731;SHT31;56996;48.138;11.538;2022-08-01T00:27:14;22.95;49.98
69731;SHT31;56996;48.138;11.538;2022-08-01T00:29:41;22.94;49.92
69731;SHT31;56996;48.138;11.538;2022-08-01T00:32:29;22.92;49.94
69731;SHT31;56996;48.138;11.538;2022-08-01T00:34:58;22.90;49.88
69731;SHT31;56996;48.138;11.538;2022-08-01T00:37:25;22.89;49.90
69731;SHT31;56996;48.138;11.538;2022-08-01T00:39:52;22.85;49.96
69731;SHT31;56996;48.138;11.538;2022-08-01T00:42:18;22.82;50.02
69731;SHT31;56996;48.138;11.538;2022-08-01T00:44:45;22.77;50.12
69731;SHT31;56996;48.138;11.538;2022-08-01T00:47:12;22.75;50.24
69731;SHT31;56996;48.138;11.538;2022-08-01T00:49:39;22.68;50.42
69731;SHT31;56996;48.138;11.538;2022-08-01T00:52:06;22.61;50.59
69731;SHT31;56996;48.138;11.538;2022-08-01T00:54:35;22.55;50.59
69731;SHT31;56996;48.138;11.538;2022-08-01T00:57:02;22.51;50.67
69731;SHT31;56996;48.138;11.538;2022-08-01T00:59:35;22.47;50.75
69731;SHT31;56996;48.138;11.538;2022-08-01T01:02:05;22.44;50.74
69731;SHT31;56996;48.138;11.538;2022-08-01T01:04:40;22.41;50.82
69731;SHT31;56996;48.138;11.538;2022-08-01T01:09:56;22.40;50.83
69731;SHT31;56996;48.138;11.538;2022-08-01T01:12:59;22.37;50.98
69731;SHT31;56996;48.138;11.538;2022-08-01T01:15:41;22.31;50.90
69731;SHT31;56996;48.138;11.538;2022-08-01T01:23:55;22.24;50.81
69731;SHT31;56996;48.138;11.538;2022-08-01T01:26:43;22.23;50.94
69731;SHT31;56996;48.138;11.538;2022-08-01T01:29:23;22.19;50.92
69731;SHT31;56996;48.138;11.538;2022-08-01T01:32:24;22.16;51.03
69731;SHT31;56996;48.138;11.538;2022-08-01T01:35:05;22.14;51.17
69731;SHT31;56996;48.138;11.538;2022-08-01T01:37:37;22.10;51.31
69731;SHT31;56996;48.138;11.538;2022-08-01T01:40:06;22.08;51.39
69731;SHT31;56996;48.138;11.538;2022-08-01T01:42:36;22.06;51.37
69731;SHT31;56996;48.138;11.538;2022-08-01T01:45:06;22.03;51.51
69731;SHT31;56996;48.138;11.538;2022-08-01T01:47:33;21.99;51.51
69731;SHT31;56996;48.138;11.538;2022-08-01T01:50:02;21.98;51.48
69731;SHT31;56996;48.138;11.538;2022-08-01T01:52:32;21.96;51.49
69731;SHT31;56996;48.138;11.538;2022-08-01T01:55:01;21.94;51.50
69731;SHT31;56996;48.138;11.538;2022-08-01T01:57:32;21.93;51.52
69731;SHT31;56996;48.138;11.538;2022-08-01T02:00:07;21.93;51.55
69731;SHT31;56996;48.138;11.538;2022-08-01T02:02:39;21.92;51.58
69731;SHT31;56996;48.138;11.538;2022-08-01T02:05:09;21.93;51.45
69731;SHT31;56996;48.138;11.538;2022-08-01T02:07:38;21.93;51.39
69731;SHT31;56996;48.138;11.538;2022-08-01T02:10:06;21.94;51.38
69731;SHT31;56996;48.138;11.538;2022-08-01T02:12:35;21.96;51.30
69731;SHT31;56996;48.138;11.538;2022-08-01T02:15:06;21.97;51.20
69731;SHT31;56996;48.138;11.538;2022-08-01T02:17:37;21.96;51.23
69731;SHT31;56996;48.138;11.538;2022-08-01T02:20:10;21.95;51.24
69731;SHT31;56996;48.138;11.538;2022-08-01T02:22:49;21.94;51.19
69731;SHT31;56996;48.138;11.538;2022-08-01T02:25:22;21.93;51.27
69731;SHT31;56996;48.138;11.538;2022-08-01T02:27:56;21.94;51.27
69731;SHT31;56996;48.138;11.538;2022-08-01T02:30:32;21.94;51.22
69731;SHT31;56996;48.138;11.538;2022-08-01T02:33:10;21.92;51.24
69731;SHT31;56996;48.138;11.538;2022-08-01T02:35:49;21.86;51.34
69731;SHT31;56996;48.138;11.538;2022-08-01T02:38:40;21.83;51.35
69731;SHT31;56996;48.138;11.538;2022-08-01T02:41:11;21.81;51.21
69731;SHT31;56996;48.138;11.538;2022-08-01T02:43:48;21.83;51.10
69731;SHT31;56996;48.138;11.538;2022-08-01T02:46:33;21.82;51.10
69731;SHT31;56996;48.138;11.538;2022-08-01T02:49:07;21.80;51.07
69731;SHT31;56996;48.138;11.538;2022-08-01T02:51:36;21.80;51.04
69731;SHT31;56996;48.138;11.538;2022-08-01T02:54:06;21.79;51.05
69731;SHT31;56996;48.138;11.538;2022-08-01T02:56:35;21.78;51.01
69731;SHT31;56996;48.138;11.538;2022-08-01T02:59:04;21.75;51.03
69731;SHT31;56996;48.138;11.538;2022-08-01T03:01:47;21.73;51.06
69731;SHT31;56996;48.138;11.538;2022-08-01T03:04:16;21.70;51.05
69731;SHT31;56996;48.138;11.538;2022-08-01T03:06:44;21.66;51.09
69731;SHT31;56996;48.138;11.538;2022-08-01T03:09:12;21.63;51.10
69731;SHT31;56996;48.138;11.538;2022-08-01T03:11:42;21.62;51.11
69731;SHT31;56996;48.138;11.538;2022-08-01T03:14:11;21.60;51.10
69731;SHT31;56996;48.138;11.538;2022-08-01T03:16:39;21.57;51.18
69731;SHT31;56996;48.138;11.538;2022-08-01T03:19:10;21.55;51.24
69731;SHT31;56996;48.138;11.538;2022-08-01T03:21:39;21.52;51.26
69731;SHT31;56996;48.138;11.538;2022-08-01T03:24:09;21.50;51.33
69731;SHT31;56996;48.138;11.538;2022-08-01T03:26:37;21.48;51.47
69731;SHT31;56996;48.138;11.538;2022-08-01T03:29:06;21.45;51.62
69731;SHT31;56996;48.138;11.538;2022-08-01T03:31:40;21.43;51.72
69731;SHT31;56996;48.138;11.538;2022-08-01T03:34:11;21.41;51.79
69731;SHT31;56996;48.138;11.538;2022-08-01T03:37:13;21.39;51.91
69731;SHT31;56996;48.138;11.538;2022-08-01T03:39:47;21.34;52.01
69731;SHT31;56996;48.138;11.538;2022-08-01T03:42:19;21.34;52.08
69731;SHT31;56996;48.138;11.538;2022-08-01T03:44:54;21.30;52.17
69731;SHT31;56996;48.138;11.538;2022-08-01T03:47:32;21.27;52.26
69731;SHT31;56996;48.138;11.538;2022-08-01T03:50:10;21.24;52.35
69731;SHT31;56996;48.138;11.538;2022-08-01T03:52:40;21.23;52.39
69731;SHT31;56996;48.138;11.538;2022-08-01T03:55:10;21.22;52.45
69731;SHT31;56996;48.138;11.538;2022-08-01T03:57:38;21.20;52.72
69731;SHT31;56996;48.138;11.538;2022-08-01T04:00:06;21.14;52.83
69731;SHT31;56996;48.138;11.538;2022-08-01T04:02:38;21.13;52.82
69731;SHT31;56996;48.138;11.538;2022-08-01T04:05:05;21.10;52.84
69731;SHT31;56996;48.138;11.538;2022-08-01T04:07:33;21.07;52.90
69731;SHT31;56996;48.138;11.538;2022-08-01T04:10:05;21.07;52.96
69731;SHT31;56996;48.138;11.538;2022-08-01T04:12:33;21.06;52.98
69731;SHT31;56996;48.138;11.538;2022-08-01T04:15:01;21.06;52.97
69731;SHT31;56996;48.138;11.538;2022-08-01T04:17:28;21.06;53.00
69731;SHT31;56996;48.138;11.538;2022-08-01T04:19:54;21.05;53.04
69731;SHT31;56996;48.138;11.538;2022-08-01T04:22:21;21.05;53.00
69731;SHT31;56996;48.138;11.538;2022-08-01T04:24:49;21.04;53.00
69731;SHT31;56996;48.138;11.538;2022-08-01T04:27:26;21.04;53.03
69731;SHT31;56996;48.138;11.538;2022-08-01T04:30:17;21.04;53.06
69731;SHT31;56996;48.138;11.538;2022-08-01T04:32:50;21.03;53.23
69731;SHT31;56996;48.138;11.538;2022-08-01T04:35:20;21.02;53.14
69731;SHT31;56996;48.138;11.538;2022-08-01T04:38:08;21.03;53.10
69731;SHT31;56996;48.138;11.538;2022-08-01T04:40:39;21.04;53.03
69731;SHT31;56996;48.138;11.538;2022-08-01T04:43:07;21.06;53.00
69731;SHT31;56996;48.138;11.538;2022-08-01T04:45:34;21.08;52.96
69731;SHT31;56996;48.138;11.538;2022-08-01T04:48:04;21.12;52.86
69731;SHT31;56996;48.138;11.538;2022-08-01T04:50:32;21.16;52.79
69731;SHT31;56996;48.138;11.538;2022-08-01T04:53:01;21.21;52.78
69731;SHT31;56996;48.138;11.538;2022-08-01T04:55:29;21.27;52.73
69731;SHT31;56996;48.138;11.538;2022-08-01T04:57:57;21.32;52.72
69731;SHT31;56996;48.138;11.538;2022-08-01T05:00:25;21.37;52.50
69731;SHT31;56996;48.138;11.538;2022-08-01T05:02:52;21.46;52.34
69731;SHT31;56996;48.138;11.538;2022-08-01T05:05:18;21.55;52.12
69731;SHT31;56996;48.138;11.538;2022-08-01T05:07:47;21.66;51.91
69731;SHT31;56996;48.138;11.538;2022-08-01T05:10:13;21.71;51.87
69731;SHT31;56996;48.138;11.538;2022-08-01T05:12:40;21.79;51.70
69731;SHT31;56996;48.138;11.538;2022-08-01T05:15:07;21.88;51.54
69731;SHT31;56996;48.138;11.538;2022-08-01T05:17:41;21.99;51.38
69731;SHT31;56996;48.138;11.538;2022-08-01T05:20:11;22.09;51.21
69731;SHT31;56996;48.138;11.538;2022-08-01T05:22:38;22.18;51.09
69731;SHT31;56996;48.138;11.538;2022-08-01T05:25:05;22.32;50.83
69731;SHT31;56996;48.138;11.538;2022-08-01T05:27:33;22.42;50.54
69731;SHT31;56996;48.138;11.538;2022-08-01T05:30:06;22.52;50.32
69731;SHT31;56996;48.138;11.538;2022-08-01T05:32:35;22.64;50.04
69731;SHT31;56996;48.138;11.538;2022-08-01T05:35:02;22.78;49.68
69731;SHT31;56996;48.138;11.538;2022-08-01T05:37:30;22.94;49.44
69731;SHT31;56996;48.138;11.538;2022-08-01T05:39:57;23.05;49.36
69731;SHT31;56996;48.138;11.538;2022-08-01T05:42:24;23.22;49.01
69731;SHT31;56996;48.138;11.538;2022-08-01T05:44:50;23.38;48.70
69731;SHT31;56996;48.138;11.538;2022-08-01T05:47:17;23.43;48.52
69731;SHT31;56996;48.138;11.538;2022-08-01T05:49:44;23.38;48.46
69731;SHT31;56996;48.138;11.538;2022-08-01T05:52:12;23.39;48.44
69731;SHT31;56996;48.138;11.538;2022-08-01T05:54:39;23.38;48.32
69731;SHT31;56996;48.138;11.538;2022-08-01T05:57:06;23.37;48.46
69731;SHT31;56996;48.138;11.538;2022-08-01T05:59:33;23.35;48.43
69731;SHT31;56996;48.138;11.538;2022-08-01T06:01:59;23.31;48.61
69731;SHT31;56996;48.138;11.538;2022-08-01T06:04:26;23.34;48.54
69731;SHT31;56996;48.138;11.538;2022-08-01T06:06:53;23.83;48.08
69731;SHT31;56996;48.138;11.538;2022-08-01T06:09:20;25.66;45.26
69731;SHT31;56996;48.138;11.538;2022-08-01T06:11:47;27.54;42.23
69731;SHT31;56996;48.138;11.538;2022-08-01T06:14:14;29.07;39.92
69731;SHT31;56996;48.138;11.538;2022-08-01T06:16:40;30.52;37.83
69731;SHT31;56996;48.138;11.538;2022-08-01T06:19:07;31.82;35.74
69731;SHT31;56996;48.138;11.538;2022-08-01T06:21:34;32.64;34.51
69731;SHT31;56996;48.138;11.538;2022-08-01T06:24:00;33.37;33.05
69731;SHT31;56996;48.138;11.538;2022-08-01T06:26:27;34.01;32.57
69731;SHT31;56996;48.138;11.538;2022-08-01T06:28:54;35.06;31.42
69731;SHT31;56996;48.138;11.538;2022-08-01T06:31:21;36.40;29.87
69731;SHT31;56996;48.138;11.538;2022-08-01T06:33:47;37.26;28.38
69731;SHT31;56996;48.138;11.538;2022-08-01T06:36:14;37.47;27.83
69731;SHT31;56996;48.138;11.538;2022-08-01T06:38:41;37.90;27.41
69731;SHT31;56996;48.138;11.538;2022-08-01T06:41:07;38.19;26.71
69731;SHT31;56996;48.138;11.538;2022-08-01T06:43:34;39.01;26.11
69731;SHT31;56996;48.138;11.538;2022-08-01T06:46:01;39.78;25.43
69731;SHT31;56996;48.138;11.538;2022-08-01T06:48:27;40.70;24.40
69731;SHT31;56996;48.138;11.538;2022-08-01T06:50:54;41.17;23.83
69731;SHT31;56996;48.138;11.538;2022-08-01T06:53:35;41.24;23.44
69731;SHT31;56996;48.138;11.538;2022-08-01T06:56:03;41.58;22.86
69731;SHT31;56996;48.138;11.538;2022-08-01T06:58:32;41.49;22.51
69731;SHT31;56996;48.138;11.538;2022-08-01T07:01:01;41.76;22.55
69731;SHT31;56996;48.138;11.538;2022-08-01T07:03:33;42.07;21.92
69731;SHT31;56996;48.138;11.538;2022-08-01T07:06:21;42.12;22.04
69731;SHT31;56996;48.138;11.538;2022-08-01T07:08:49;42.66;21.63
69731;SHT31;56996;48.138;11.538;2022-08-01T07:11:16;43.10;21.02
69731;SHT31;56996;48.138;11.538;2022-08-01T07:13:44;42.45;20.67
69731;SHT31;56996;48.138;11.538;2022-08-01T07:16:14;41.83;21.40
69731;SHT31;56996;48.138;11.538;2022-08-01T07:18:42;42.07;21.16
69731;SHT31;56996;48.138;11.538;2022-08-01T07:21:09;42.37;21.07
69731;SHT31;56996;48.138;11.538;2022-08-01T07:23:57;42.60;20.68
69731;SHT31;56996;48.138;11.538;2022-08-01T07:26:24;42.98;20.50
69731;SHT31;56996;48.138;11.538;2022-08-01T07:28:51;43.12;20.25
69731;SHT31;56996;48.138;11.538;2022-08-01T07:31:17;42.19;20.71
69731;SHT31;56996;48.138;11.538;2022-08-01T07:33:44;41.22;21.38
69731;SHT31;56996;48.138;11.538;2022-08-01T07:36:17;40.46;21.85
69731;SHT31;56996;48.138;11.538;2022-08-01T07:38:45;39.53;22.41
69731;SHT31;56996;48.138;11.538;2022-08-01T07:41:13;38.16;23.27
69731;SHT31;56996;48.138;11.538;2022-08-01T07:43:41;36.88;24.46
69731;SHT31;56996;48.138;11.538;2022-08-01T07:46:20;36.10;25.14
69731;SHT31;56996;48.138;11.538;2022-08-01T07:48:46;35.46;25.81
69731;SHT31;56996;48.138;11.538;2022-08-01T07:51:13;34.93;26.42
69731;SHT31;56996;48.138;11.538;2022-08-01T07:53:40;34.45;27.01
69731;SHT31;56996;48.138;11.538;2022-08-01T07:56:07;33.57;28.02
69731;SHT31;56996;48.138;11.538;2022-08-01T07:58:34;33.80;28.03
69731;SHT31;56996;48.138;11.538;2022-08-01T08:01:00;35.01;27.07
69731;SHT31;56996;48.138;11.538;2022-08-01T08:03:28;36.30;26.10
69731;SHT31;56996;48.138;11.538;2022-08-01T08:05:54;37.47;24.78
69731;SHT31;56996;48.138;11.538;2022-08-01T08:08:25;37.61;24.54
69731;SHT31;56996;48.138;11.538;2022-08-01T08:10:52;38.13;24.21
69731;SHT31;56996;48.138;11.538;2022-08-01T08:13:19;38.19;23.81
69731;SHT31;56996;48.138;11.538;2022-08-01T08:15:46;38.37;23.94
69731;SHT31;56996;48.138;11.538;2022-08-01T08:18:14;39.48;23.48
69731;SHT31;56996;48.138;11.538;2022-08-01T08:20:42;39.76;22.01
69731;SHT31;56996;48.138;11.538;2022-08-01T08:23:09;39.63;22.88
69731;SHT31;56996;48.138;11.538;2022-08-01T08:26:09;40.09;22.10
69731;SHT31;56996;48.138;11.538;2022-08-01T08:28:37;39.97;22.11
69731;SHT31;56996;48.138;11.538;2022-08-01T08:31:06;39.65;22.27
69731;SHT31;56996;48.138;11.538;2022-08-01T08:33:54;40.12;22.63
69731;SHT31;56996;48.138;11.538;2022-08-01T08:36:21;41.41;21.40
69731;SHT31;56996;48.138;11.538;2022-08-01T08:38:56;41.53;21.18
69731;SHT31;56996;48.138;11.538;2022-08-01T08:41:28;42.28;21.13
69731;SHT31;56996;48.138;11.538;2022-08-01T08:44:06;43.50;20.28
69731;SHT31;56996;48.138;11.538;2022-08-01T08:46:46;44.56;19.07
69731;SHT31;56996;48.138;11.538;2022-08-01T08:49:23;44.57;19.09
69731;SHT31;56996;48.138;11.538;2022-08-01T08:52:02;44.47;18.48
69731;SHT31;56996;48.138;11.538;2022-08-01T08:54:34;43.93;19.05
69731;SHT31;56996;48.138;11.538;2022-08-01T08:57:06;43.70;19.39
69731;SHT31;56996;48.138;11.538;2022-08-01T08:59:33;44.50;18.98
69731;SHT31;56996;48.138;11.538;2022-08-01T09:02:00;44.63;18.71
69731;SHT31;56996;48.138;11.538;2022-08-01T09:04:27;44.14;17.98
69731;SHT31;56996;48.138;11.538;2022-08-01T09:06:54;42.87;18.92
69731;SHT31;56996;48.138;11.538;2022-08-01T09:09:21;42.68;19.36
69731;SHT31;56996;48.138;11.538;2022-08-01T09:11:49;42.65;19.19
69731;SHT31;56996;48.138;11.538;2022-08-01T09:14:24;42.64;19.34
69731;SHT31;56996;48.138;11.538;2022-08-01T09:17:00;42.69;19.59
69731;SHT31;56996;48.138;11.538;2022-08-01T09:19:36;42.99;19.40
69731;SHT31;56996;48.138;11.538;2022-08-01T09:22:17;43.65;19.04
69731;SHT31;56996;48.138;11.538;2022-08-01T09:27:35;45.15;18.30
69731;SHT31;56996;48.138;11.538;2022-08-01T09:30:15;45.70;17.43
69731;SHT31;56996;48.138;11.538;2022-08-01T09:33:01;44.79;17.42
69731;SHT31;56996;48.138;11.538;2022-08-01T09:35:53;43.01;18.41
69731;SHT31;56996;48.138;11.538;2022-08-01T09:38:24;42.84;18.92
69731;SHT31;56996;48.138;11.538;2022-08-01T09:40:57;42.64;19.07
69731;SHT31;56996;48.138;11.538;2022-08-01T09:43:27;42.18;19.16
69731;SHT31;56996;48.138;11.538;2022-08-01T09:45:58;41.94;19.75
69731;SHT31;56996;48.138;11.538;2022-08-01T09:48:29;42.69;19.20
69731;SHT31;56996;48.138;11.538;2022-08-01T09:50:58;43.02;19.00
69731;SHT31;56996;48.138;11.538;2022-08-01T09:53:45;43.35;18.79
69731;SHT31;56996;48.138;11.538;2022-08-01T09:56:18;43.23;18.67
69731;SHT31;56996;48.138;11.538;2022-08-01T09:58:55;42.67;19.04
69731;SHT31;56996;48.138;11.538;2022-08-01T10:01:28;42.37;19.24
69731;SHT31;56996;48.138;11.538;2022-08-01T10:04:18;41.89;19.57
69731;SHT31;56996;48.138;11.538;2022-08-01T10:06:47;40.76;20.30
69731;SHT31;56996;48.138;11.538;2022-08-01T10:09:31;40.15;20.96
69731;SHT31;56996;48.138;11.538;2022-08-01T10:12:07;39.58;21.21
69731;SHT31;56996;48.138;11.538;2022-08-01T10:14:42;38.77;21.69
69731;SHT31;56996;48.138;11.538;2022-08-01T10:17:16;38.19;22.31
69731;SHT31;56996;48.138;11.538;2022-08-01T10:19:46;37.65;23.32
69731;SHT31;56996;48.138;11.538;2022-08-01T10:22:16;37.11;23.94
69731;SHT31;56996;48.138;11.538;2022-08-01T10:24:46;36.70;24.73
69731;SHT31;56996;48.138;11.538;2022-08-01T10:27:14;35.99;25.30
69731;SHT31;56996;48.138;11.538;2022-08-01T10:30:03;35.61;25.45
69731;SHT31;56996;48.138;11.538;2022-08-01T10:32:51;35.45;25.78
69731;SHT31;56996;48.138;11.538;2022-08-01T10:35:20;35.08;26.04
69731;SHT31;56996;48.138;11.538;2022-08-01T10:38:07;34.88;26.41
69731;SHT31;56996;48.138;11.538;2022-08-01T10:40:39;34.40;26.90
69731;SHT31;56996;48.138;11.538;2022-08-01T10:43:09;34.22;26.87
69731;SHT31;56996;48.138;11.538;2022-08-01T10:45:38;33.88;27.49
69731;SHT31;56996;48.138;11.538;2022-08-01T10:48:18;33.57;27.96
69731;SHT31;56996;48.138;11.538;2022-08-01T10:50:49;33.31;28.19
69731;SHT31;56996;48.138;11.538;2022-08-01T10:53:20;33.21;28.08
69731;SHT31;56996;48.138;11.538;2022-08-01T10:56:07;33.14;28.35
69731;SHT31;56996;48.138;11.538;2022-08-01T10:58:41;33.13;28.23
69731;SHT31;56996;48.138;11.538;2022-08-01T11:01:29;33.33;28.15
69731;SHT31;56996;48.138;11.538;2022-08-01T11:04:12;33.33;28.43
69731;SHT31;56996;48.138;11.538;2022-08-01T11:09:31;33.06;28.44
69731;SHT31;56996;48.138;11.538;2022-08-01T11:12:17;33.04;28.77
69731;SHT31;56996;48.138;11.538;2022-08-01T11:17:35;32.65;29.17
69731;SHT31;56996;48.138;11.538;2022-08-01T11:20:15;32.72;28.82
69731;SHT31;56996;48.138;11.538;2022-08-01T11:26:11;32.71;28.78
69731;SHT31;56996;48.138;11.538;2022-08-01T11:28:35;32.80;29.03
69731;SHT31;56996;48.138;11.538;2022-08-01T11:38:44;33.21;28.38
69731;SHT31;56996;48.138;11.538;2022-08-01T11:41:39;33.15;28.51
69731;SHT31;56996;48.138;11.538;2022-08-01T11:44:16;32.77;28.76
69731;SHT31;56996;48.138;11.538;2022-08-01T11:46:55;32.54;28.92
69731;SHT31;56996;48.138;11.538;2022-08-01T11:52:28;32.49;29.00
69731;SHT31;56996;48.138;11.538;2022-08-01T11:55:06;32.55;28.37
69731;SHT31;56996;48.138;11.538;2022-08-01T11:57:37;32.50;28.89
69731;SHT31;56996;48.138;11.538;2022-08-01T12:00:12;32.47;28.91
69731;SHT31;56996;48.138;11.538;2022-08-01T12:02:44;32.40;28.96
69731;SHT31;56996;48.138;11.538;2022-08-01T12:05:13;32.44;28.89
69731;SHT31;56996;48.138;11.538;2022-08-01T12:07:50;32.45;28.21
69731;SHT31;56996;48.138;11.538;2022-08-01T12:10:20;32.32;28.37
69731;SHT31;56996;48.138;11.538;2022-08-01T12:12:51;32.50;28.44
69731;SHT31;56996;48.138;11.538;2022-08-01T12:15:23;32.65;27.67
69731;SHT31;56996;48.138;11.538;2022-08-01T12:17:55;32.36;27.59
69731;SHT31;56996;48.138;11.538;2022-08-01T12:20:29;32.13;27.82
69731;SHT31;56996;48.138;11.538;2022-08-01T12:23:15;31.84;28.75
69731;SHT31;56996;48.138;11.538;2022-08-01T12:25:43;31.52;29.17
69731;SHT31;56996;48.138;11.538;2022-08-01T12:28:14;31.51;29.19
69731;SHT31;56996;48.138;11.538;2022-08-01T12:30:41;31.67;29.33
69731;SHT31;56996;48.138;11.538;2022-08-01T12:33:09;31.76;28.74
69731;SHT31;56996;48.138;11.538;2022-08-01T12:35:37;31.87;28.55
69731;SHT31;56996;48.138;11.538;2022-08-01T12:38:14;31.86;28.41
69731;SHT31;56996;48.138;11.538;2022-08-01T12:40:46;31.66;28.54
69731;SHT31;56996;48.138;11.538;2022-08-01T12:43:19;31.41;29.09
69731;SHT31;56996;48.138;11.538;2022-08-01T12:45:55;31.33;29.39
69731;SHT31;56996;48.138;11.538;2022-08-01T12:48:26;31.40;29.23
69731;SHT31;56996;48.138;11.538;2022-08-01T12:50:54;31.51;29.23
69731;SHT31;56996;48.138;11.538;2022-08-01T12:53:26;31.44;29.15
69731;SHT31;56996;48.138;11.538;2022-08-01T12:56:07;31.48;28.88
69731;SHT31;56996;48.138;11.538;2022-08-01T12:58:37;31.42;28.47
69731;SHT31;56996;48.138;11.538;2022-08-01T13:01:05;31.19;28.83
69731;SHT31;56996;48.138;11.538;2022-08-01T13:03:37;31.26;29.07
69731;SHT31;56996;48.138;11.538;2022-08-01T13:06:12;31.33;29.15
69731;SHT31;56996;48.138;11.538;2022-08-01T13:08:43;31.26;29.14
69731;SHT31;56996;48.138;11.538;2022-08-01T13:11:12;31.20;29.21
69731;SHT31;56996;48.138;11.538;2022-08-01T13:13:49;31.21;29.27
69731;SHT31;56996;48.138;11.538;2022-08-01T13:16:22;31.09;29.29
69731;SHT31;56996;48.138;11.538;2022-08-01T13:19:04;30.87;29.93
69731;SHT31;56996;48.138;11.538;2022-08-01T13:21:31;30.58;31.38
69731;SHT31;56996;48.138;11.538;2022-08-01T13:24:22;30.20;32.79
69731;SHT31;56996;48.138;11.538;2022-08-01T13:26:52;29.87;33.45
69731;SHT31;56996;48.138;11.538;2022-08-01T13:29:38;29.66;34.30
69731;SHT31;56996;48.138;11.538;2022-08-01T13:32:19;29.45;34.44
69731;SHT31;56996;48.138;11.538;2022-08-01T13:35:05;29.30;34.53
69731;SHT31;56996;48.138;11.538;2022-08-01T13:37:35;29.28;34.72
69731;SHT31;56996;48.138;11.538;2022-08-01T13:40:04;29.33;34.83
69731;SHT31;56996;48.138;11.538;2022-08-01T13:42:33;29.36;34.94
69731;SHT31;56996;48.138;11.538;2022-08-01T13:44:59;29.32;34.92
69731;SHT31;56996;48.138;11.538;2022-08-01T13:47:29;29.24;34.84
69731;SHT31;56996;48.138;11.538;2022-08-01T13:50:01;29.19;34.71
69731;SHT31;56996;48.138;11.538;2022-08-01T13:52:29;29.23;34.49
69731;SHT31;56996;48.138;11.538;2022-08-01T13:54:57;29.24;33.81
69731;SHT31;56996;48.138;11.538;2022-08-01T13:57:25;29.21;33.37
69731;SHT31;56996;48.138;11.538;2022-08-01T14:00:05;29.18;33.17
69731;SHT31;56996;48.138;11.538;2022-08-01T14:02:38;29.04;33.19
69731;SHT31;56996;48.138;11.538;2022-08-01T14:05:05;28.98;33.55
69731;SHT31;56996;48.138;11.538;2022-08-01T14:07:32;28.88;33.99
69731;SHT31;56996;48.138;11.538;2022-08-01T14:09:59;28.81;34.04
69731;SHT31;56996;48.138;11.538;2022-08-01T14:12:45;28.85;34.46
69731;SHT31;56996;48.138;11.538;2022-08-01T14:15:16;28.84;35.92
69731;SHT31;56996;48.138;11.538;2022-08-01T14:18:03;28.80;38.13
69731;SHT31;56996;48.138;11.538;2022-08-01T14:20:31;28.58;39.08
69731;SHT31;56996;48.138;11.538;2022-08-01T14:23:00;28.35;39.89
69731;SHT31;56996;48.138;11.538;2022-08-01T14:25:27;28.30;40.75
69731;SHT31;56996;48.138;11.538;2022-08-01T14:28:13;28.20;41.08
69731;SHT31;56996;48.138;11.538;2022-08-01T14:30:40;28.09;41.95
69731;SHT31;56996;48.138;11.538;2022-08-01T14:33:09;27.92;41.10
69731;SHT31;56996;48.138;11.538;2022-08-01T14:35:37;27.87;41.32
69731;SHT31;56996;48.138;11.538;2022-08-01T14:38:24;27.82;41.01
69731;SHT31;56996;48.138;11.538;2022-08-01T14:40:57;27.87;40.95
69731;SHT31;56996;48.138;11.538;2022-08-01T14:43:25;27.89;41.07
69731;SHT31;56996;48.138;11.538;2022-08-01T14:45:59;27.83;41.14
69731;SHT31;56996;48.138;11.538;2022-08-01T14:48:30;27.79;41.19
69731;SHT31;56996;48.138;11.538;2022-08-01T14:50:58;27.73;41.30
69731;SHT31;56996;48.138;11.538;2022-08-01T14:53:29;27.66;41.23
69731;SHT31;56996;48.138;11.538;2022-08-01T14:55:59;27.72;41.24
69731;SHT31;56996;48.138;11.538;2022-08-01T14:58:26;27.74;41.06
69731;SHT31;56996;48.138;11.538;2022-08-01T15:00:53;27.75;41.13
69731;SHT31;56996;48.138;11.538;2022-08-01T15:03:24;27.71;41.50
69731;SHT31;56996;48.138;11.538;2022-08-01T15:05:51;27.70;42.43
69731;SHT31;56996;48.138;11.538;2022-08-01T15:08:18;27.65;42.63
69731;SHT31;56996;48.138;11.538;2022-08-01T15:10:45;27.53;43.02
69731;SHT31;56996;48.138;11.538;2022-08-01T15:13:12;27.39;43.21
69731;SHT31;56996;48.138;11.538;2022-08-01T15:15:38;27.29;42.99
69731;SHT31;56996;48.138;11.538;2022-08-01T15:18:05;27.24;42.82
69731;SHT31;56996;48.138;11.538;2022-08-01T15:20:32;27.18;42.67
69731;SHT31;56996;48.138;11.538;2022-08-01T15:22:59;27.13;42.76
69731;SHT31;56996;48.138;11.538;2022-08-01T15:25:26;27.13;43.12
69731;SHT31;56996;48.138;11.538;2022-08-01T15:28:08;27.08;42.83
69731;SHT31;56996;48.138;11.538;2022-08-01T15:30:36;27.00;42.84
69731;SHT31;56996;48.138;11.538;2022-08-01T15:33:03;26.81;43.01
69731;SHT31;56996;48.138;11.538;2022-08-01T15:35:30;26.59;43.83
69731;SHT31;56996;48.138;11.538;2022-08-01T15:37:56;26.46;44.29
69731;SHT31;56996;48.138;11.538;2022-08-01T15:40:23;26.36;44.93
69731;SHT31;56996;48.138;11.538;2022-08-01T15:42:50;26.26;45.71
69731;SHT31;56996;48.138;11.538;2022-08-01T15:45:18;26.11;46.44
69731;SHT31;56996;48.138;11.538;2022-08-01T15:48:07;25.93;47.79
69731;SHT31;56996;48.138;11.538;2022-08-01T15:50:33;25.75;48.13
69731;SHT31;56996;48.138;11.538;2022-08-01T15:53:00;25.64;47.75
69731;SHT31;56996;48.138;11.538;2022-08-01T15:55:27;25.58;48.40
69731;SHT31;56996;48.138;11.538;2022-08-01T15:57:54;25.48;48.14
69731;SHT31;56996;48.138;11.538;2022-08-01T16:00:21;25.38;48.15
69731;SHT31;56996;48.138;11.538;2022-08-01T16:02:48;25.33;48.17
69731;SHT31;56996;48.138;11.538;2022-08-01T16:05:14;25.23;48.66
69731;SHT31;56996;48.138;11.538;2022-08-01T16:07:45;25.15;48.72
69731;SHT31;56996;48.138;11.538;2022-08-01T16:10:26;25.11;49.01
69731;SHT31;56996;48.138;11.538;2022-08-01T16:12:54;25.08;48.99